Time;durP1;ratioP1;P1;durP2;ratioP2;P2;SDS_P1;SDS_P2;PMS_P1;PMS_P2;Temp;Humidity;BMP_temperature;BMP_pressure;BME280_temperature;BME280_humidity;BME280_pressure;Samples;Min_cycle;Max_cycle;Signal;HPM_P1;HPM_P2
2023/01/07 00:01:40;;;;;;;;;;;;;;;9.99;100.00;98489.22;5097493;28;20617;-76
2023/01/07 00:04:07;;;;;;;;;;;;;;;10.05;100.00;98488.25;5100411;28;20029;-76
2023/01/07 00:06:36;;;;;;;;;;;;;;;10.00;100.00;98488.97;5101632;28;19924;-74
2023/01/07 00:09:04;;;;;;;;;;;;;;;10.10;100.00;98491.78;5117303;28;19920;-74
2023/01/07 00:11:32;;;;;;;;;;;;;;;10.24;100.00;98489.63;5097310;28;20310;-73
2023/01/07 00:13:59;;;;;;;;;;;;;;;10.24;100.00;98486.94;5099287;28;19924;-78
2023/01/07 00:16:26;;;;;;;;;;;;;;;10.33;100.00;98485.47;5101535;28;19959;-76
2023/01/07 00:18:54;;;;;;;;;;;;;;;10.28;100.00;98480.03;5118682;28;19924;-75
2023/01/07 00:21:21;;;;;;;;;;;;;;;9.98;100.00;98484.94;5115667;28;19931;-75
2023/01/07 00:23:49;;;;;;;;;;;;;;;10.10;100.00;98474.97;5118770;27;19924;-75
2023/01/07 00:26:17;;;;;;;;;;;;;;;10.26;100.00;98480.31;5101608;28;19931;-75
2023/01/07 00:28:44;;;;;;;;;;;;;;;10.23;100.00;98475.47;5119324;28;19951;-74
2023/01/07 00:31:11;;;;;;;;;;;;;;;10.19;100.00;98468.19;5097380;28;19983;-74
2023/01/07 00:33:44;;;;;;;;;;;;;;;10.22;100.00;98467.69;5115812;28;19973;-76
2023/01/07 00:36:12;;;;;;;;;;;;;;;10.25;100.00;98480.53;5118989;28;19947;-75
2023/01/07 00:38:38;;;;;;;;;;;;;;;10.22;100.00;98478.34;5100679;28;19931;-76
2023/01/07 00:41:06;;;;;;;;;;;;;;;10.04;100.00;98478.63;5099415;28;19939;-76
2023/01/07 00:43:32;;;;;;;;;;;;;;;10.04;100.00;98475.94;5097105;28;19931;-75
2023/01/07 00:45:59;;;;;;;;;;;;;;;10.10;100.00;98481.13;5098730;28;19967;-75
2023/01/07 00:48:25;;;;;;;;;;;;;;;9.82;100.00;98472.41;5100895;28;19924;-77
2023/01/07 00:50:53;;;;;;;;;;;;;;;9.83;100.00;98474.03;5118142;28;19920;-77
2023/01/07 00:53:20;;;;;;;;;;;;;;;9.96;100.00;98469.19;5115729;28;19920;-77
2023/01/07 00:55:47;;;;;;;;;;;;;;;10.06;100.00;98463.16;5100915;28;19966;-77
2023/01/07 00:58:17;;;;;;;;;;;;;;;10.10;100.00;98470.44;5097144;28;19959;-75
2023/01/07 01:00:43;;;;;;;;;;;;;;;9.94;100.00;98467.78;5106416;28;19979;-73
2023/01/07 01:03:10;;;;;;;;;;;;;;;9.92;100.00;98467.22;5118499;28;19983;-70
2023/01/07 01:05:37;;;;;;;;;;;;;;;10.01;100.00;98465.75;5099659;28;19963;-72
2023/01/07 01:08:03;;;;;;;;;;;;;;;10.05;100.00;98461.56;5115953;28;19970;-76
2023/01/07 01:10:29;;;;;;;;;;;;;;;10.00;100.00;98464.13;5096756;28;19928;-77
2023/01/07 01:12:56;;;;;;;;;;;;;;;9.99;100.00;98465.22;5098880;28;19983;-76
2023/01/07 01:15:23;;;;;;;;;;;;;;;10.02;100.00;98467.38;5104773;28;19951;-74
2023/01/07 01:17:50;;;;;;;;;;;;;;;9.92;100.00;98468.03;5122172;28;20018;-77
2023/01/07 01:20:17;;;;;;;;;;;;;;;9.85;100.00;98463.91;5119133;28;19931;-76
2023/01/07 01:22:44;;;;;;;;;;;;;;;9.93;100.00;98471.53;5119078;28;20004;-76
2023/01/07 01:25:11;;;;;;;;;;;;;;;9.98;100.00;98461.72;5109589;28;19924;-75
2023/01/07 01:27:38;;;;;;;;;;;;;;;9.77;100.00;98465.16;5100375;28;19930;-75
2023/01/07 01:30:05;;;;;;;;;;;;;;;9.65;100.00;98467.09;5102631;28;19955;-75
2023/01/07 01:32:32;;;;;;;;;;;;;;;9.53;100.00;98464.50;5122206;28;19951;-76
2023/01/07 01:34:59;;;;;;;;;;;;;;;9.41;100.00;98471.78;5102055;28;19924;-75
2023/01/07 01:37:25;;;;;;;;;;;;;;;9.34;100.00;98463.16;5118138;28;19936;-75
2023/01/07 01:39:52;;;;;;;;;;;;;;;9.31;100.00;98466.28;5119378;28;19924;-76
2023/01/07 01:42:21;;;;;;;;;;;;;;;9.29;100.00;98462.22;5121885;28;19951;-74
2023/01/07 01:44:49;;;;;;;;;;;;;;;9.25;100.00;98467.25;5121766;28;19959;-75
2023/01/07 01:47:19;;;;;;;;;;;;;;;9.16;100.00;98460.66;5118437;28;19928;-75
2023/01/07 01:49:49;;;;;;;;;;;;;;;9.24;100.00;98462.97;5100169;28;19938;-75
2023/01/07 01:52:17;;;;;;;;;;;;;;;9.28;100.00;98466.78;5109746;28;19963;-75
2023/01/07 01:54:45;;;;;;;;;;;;;;;9.39;100.00;98460.56;5120888;27;19935;-75
2023/01/07 01:57:11;;;;;;;;;;;;;;;9.45;100.00;98464.09;5117965;28;19924;-75
2023/01/07 01:59:39;;;;;;;;;;;;;;;9.33;100.00;98461.53;5099914;28;19924;-74
2023/01/07 02:02:06;;;;;;;;;;;;;;;9.24;100.00;98454.97;5120795;28;19996;-75
2023/01/07 02:04:33;;;;;;;;;;;;;;;9.23;100.00;98454.16;5121868;28;19924;-74
2023/01/07 02:07:03;;;;;;;;;;;;;;;9.27;100.00;98454.50;5120153;28;19987;-76
2023/01/07 02:09:30;;;;;;;;;;;;;;;9.42;100.00;98459.25;5118130;28;19928;-76
2023/01/07 02:12:00;;;;;;;;;;;;;;;9.44;100.00;98452.63;5119613;28;19925;-75
2023/01/07 02:14:44;;;;;;;;;;;;;;;9.44;100.00;98455.28;5121663;28;19970;-75
2023/01/07 02:17:16;;;;;;;;;;;;;;;9.50;100.00;98454.31;5118047;28;19977;-74
2023/01/07 02:19:55;;;;;;;;;;;;;;;9.65;100.00;98451.09;5117855;28;19962;-75
2023/01/07 02:22:29;;;;;;;;;;;;;;;9.74;100.00;98445.13;5099743;28;19986;-75
2023/01/07 02:25:10;;;;;;;;;;;;;;;9.76;100.00;98445.66;5109634;28;19951;-75
2023/01/07 02:27:46;;;;;;;;;;;;;;;9.79;100.00;98441.72;5117674;28;19931;-75
2023/01/07 02:30:27;;;;;;;;;;;;;;;9.81;100.00;98438.81;5124907;28;19994;-75
2023/01/07 02:33:02;;;;;;;;;;;;;;;9.73;100.00;98427.50;5090671;28;19924;-75
2023/01/07 02:35:36;;;;;;;;;;;;;;;9.78;100.00;98430.22;5090910;28;20595;-75
2023/01/07 02:38:08;;;;;;;;;;;;;;;9.90;100.00;98427.47;5108970;28;20596;-75
2023/01/07 02:40:38;;;;;;;;;;;;;;;9.81;100.00;98420.13;5109123;28;20022;-75
2023/01/07 02:43:10;;;;;;;;;;;;;;;9.75;100.00;98430.72;5109193;28;20012;-76
2023/01/07 02:45:40;;;;;;;;;;;;;;;9.78;100.00;98419.56;5094361;28;19955;-76
2023/01/07 02:48:09;;;;;;;;;;;;;;;9.72;100.00;98417.88;5090792;28;19969;-76
2023/01/07 02:50:35;;;;;;;;;;;;;;;9.72;100.00;98417.88;5091692;28;20106;-76
2023/01/07 02:53:02;;;;;;;;;;;;;;;9.70;100.00;98417.31;5109961;28;20007;-76
2023/01/07 02:55:34;;;;;;;;;;;;;;;9.69;100.00;98413.03;5135888;27;19955;-75
2023/01/07 02:58:21;;;;;;;;;;;;;;;9.67;100.00;98417.81;5119856;28;19959;-75
2023/01/07 03:01:01;;;;;;;;;;;;;;;9.67;100.00;98412.47;5117991;28;19987;-75
2023/01/07 03:03:36;;;;;;;;;;;;;;;9.70;100.00;98411.16;5102062;28;19944;-75
2023/01/07 03:06:09;;;;;;;;;;;;;;;9.76;100.00;98415.53;5119974;28;19934;-75
2023/01/07 03:08:42;;;;;;;;;;;;;;;9.72;100.00;98412.53;5114746;28;20289;-75
2023/01/07 03:11:09;;;;;;;;;;;;;;;9.66;100.00;98413.50;5121244;28;19935;-75
2023/01/07 03:13:38;;;;;;;;;;;;;;;9.58;100.00;98403.28;5104004;28;19958;-75
2023/01/07 03:16:07;;;;;;;;;;;;;;;9.57;100.00;98403.50;5100980;28;19941;-75
2023/01/07 03:18:37;;;;;;;;;;;;;;;9.61;100.00;98407.31;5117814;28;19935;-74
2023/01/07 03:21:06;;;;;;;;;;;;;;;9.59;100.00;98396.09;5120258;28;20435;-75
2023/01/07 03:23:33;;;;;;;;;;;;;;;9.56;100.00;98400.03;5120635;28;19930;-75
2023/01/07 03:26:03;;;;;;;;;;;;;;;9.63;100.00;98395.34;5121886;27;19920;-75
2023/01/07 03:28:32;;;;;;;;;;;;;;;9.65;100.00;98392.44;5120292;28;19924;-76
2023/01/07 03:31:00;;;;;;;;;;;;;;;9.85;100.00;98392.72;5118524;28;19959;-75
2023/01/07 03:33:28;;;;;;;;;;;;;;;10.03;100.00;98383.59;5098205;28;19924;-74
2023/01/07 03:35:57;;;;;;;;;;;;;;;9.98;100.00;98380.88;5117007;28;19919;-75
2023/01/07 03:38:26;;;;;;;;;;;;;;;10.00;100.00;98378.75;5119697;28;19924;-75
2023/01/07 03:40:52;;;;;;;;;;;;;;;10.00;100.00;98368.06;5102278;28;19920;-75
2023/01/07 03:43:19;;;;;;;;;;;;;;;10.09;100.00;98372.75;5116201;28;19963;-74
2023/01/07 03:45:46;;;;;;;;;;;;;;;9.95;100.00;98373.38;5098144;28;19923;-74
2023/01/07 03:48:12;;;;;;;;;;;;;;;9.94;100.00;98358.41;5101049;28;19958;-75
2023/01/07 03:50:39;;;;;;;;;;;;;;;9.94;100.00;98361.06;5119642;28;19938;-75
2023/01/07 03:53:07;;;;;;;;;;;;;;;10.01;100.00;98361.69;5098548;28;19928;-74
2023/01/07 03:55:33;;;;;;;;;;;;;;;9.95;100.00;98349.34;5119119;27;19971;-74
2023/01/07 03:58:00;;;;;;;;;;;;;;;9.82;100.00;98349.72;5099445;28;19979;-75
2023/01/07 04:00:26;;;;;;;;;;;;;;;9.75;100.00;98355.22;5101242;28;19928;-75
2023/01/07 04:02:53;;;;;;;;;;;;;;;9.74;100.00;98349.09;5118411;28;19959;-75
2023/01/07 04:05:19;;;;;;;;;;;;;;;9.83;100.00;98346.00;5097638;28;19962;-74
2023/01/07 04:07:45;;;;;;;;;;;;;;;9.78;100.00;98349.38;5097340;28;19935;-75
2023/01/07 04:10:13;;;;;;;;;;;;;;;9.72;100.00;98347.72;5100884;28;19987;-74
2023/01/07 04:12:39;;;;;;;;;;;;;;;9.84;100.00;98342.28;5119387;28;19923;-74
2023/01/07 04:15:06;;;;;;;;;;;;;;;9.83;100.00;98346.00;5116892;28;19973;-74
2023/01/07 04:17:33;;;;;;;;;;;;;;;9.78;100.00;98352.88;5097185;28;19977;-75
2023/01/07 04:19:59;;;;;;;;;;;;;;;9.83;100.00;98336.13;5098844;28;19924;-75
2023/01/07 04:22:26;;;;;;;;;;;;;;;9.90;100.00;98330.63;5118977;28;19928;-75
2023/01/07 04:24:52;;;;;;;;;;;;;;;9.85;100.00;98334.03;5103393;28;19932;-75
2023/01/07 04:27:20;;;;;;;;;;;;;;;9.79;100.00;98327.00;5097524;28;19924;-75
2023/01/07 04:29:46;;;;;;;;;;;;;;;9.90;100.00;98323.44;5115518;28;20206;-75
2023/01/07 04:32:13;;;;;;;;;;;;;;;10.03;100.00;98322.22;5119014;28;19930;-75
2023/01/07 04:34:39;;;;;;;;;;;;;;;10.10;100.00;98317.50;5119259;28;19923;-75
2023/01/07 04:37:05;;;;;;;;;;;;;;;10.17;100.00;98323.50;5097757;28;20487;-75
2023/01/07 04:39:32;;;;;;;;;;;;;;;9.95;100.00;98318.16;5097021;28;20389;-75
2023/01/07 04:41:58;;;;;;;;;;;;;;;9.97;100.00;98320.56;5098277;28;19924;-75
2023/01/07 04:44:26;;;;;;;;;;;;;;;9.90;100.00;98319.94;5100438;28;19983;-75
2023/01/07 04:46:52;;;;;;;;;;;;;;;9.82;100.00;98312.38;5117369;28;19961;-75
2023/01/07 04:49:19;;;;;;;;;;;;;;;9.79;100.00;98308.34;5096322;28;19924;-75
2023/01/07 04:51:45;;;;;;;;;;;;;;;9.97;100.00;98305.34;5115161;28;19924;-74
2023/01/07 04:54:11;;;;;;;;;;;;;;;10.16;100.00;98304.00;5103044;28;19923;-75
2023/01/07 04:56:38;;;;;;;;;;;;;;;10.25;100.00;98301.69;5100142;28;19975;-75
2023/01/07 04:59:04;;;;;;;;;;;;;;;10.34;100.00;98305.53;5115981;28;19924;-75
2023/01/07 05:01:32;;;;;;;;;;;;;;;10.38;100.00;98295.97;5096554;28;19947;-75
2023/01/07 05:03:58;;;;;;;;;;;;;;;10.41;100.00;98297.31;5116048;28;19924;-75
2023/01/07 05:06:24;;;;;;;;;;;;;;;10.45;100.00;98288.56;5099705;28;19949;-75
2023/01/07 05:08:51;;;;;;;;;;;;;;;10.53;100.00;98293.44;5099665;28;19931;-75
2023/01/07 05:11:20;;;;;;;;;;;;;;;10.58;100.00;98296.16;5114699;28;19924;-75
2023/01/07 05:13:46;;;;;;;;;;;;;;;10.52;100.00;98280.34;5115276;28;19967;-75
2023/01/07 05:16:13;;;;;;;;;;;;;;;10.26;100.00;98277.44;5106181;28;19952;-75
2023/01/07 05:18:40;;;;;;;;;;;;;;;10.20;100.00;98288.31;5106151;28;19988;-75
2023/01/07 05:21:09;;;;;;;;;;;;;;;10.16;100.00;98282.66;5106396;28;19963;-75
2023/01/07 05:23:35;;;;;;;;;;;;;;;10.03;100.00;98271.53;5099926;28;20035;-75
2023/01/07 05:26:02;;;;;;;;;;;;;;;9.96;100.00;98281.59;5100152;28;19940;-75
2023/01/07 05:28:28;;;;;;;;;;;;;;;10.06;100.00;98273.69;5117739;28;19969;-76
2023/01/07 05:30:54;;;;;;;;;;;;;;;10.22;100.00;98278.16;5117217;28;20574;-75
2023/01/07 05:33:21;;;;;;;;;;;;;;;10.31;100.00;98271.31;5114527;28;19954;-75
2023/01/07 05:35:48;;;;;;;;;;;;;;;10.31;100.00;98260.63;5114651;28;19970;-75
2023/01/07 05:38:15;;;;;;;;;;;;;;;10.32;100.00;98264.94;5106253;28;19935;-75
2023/01/07 05:40:41;;;;;;;;;;;;;;;10.28;100.00;98263.81;5106065;28;19996;-75
2023/01/07 05:43:07;;;;;;;;;;;;;;;10.33;100.00;98247.88;5106107;28;19930;-75
2023/01/07 05:45:34;;;;;;;;;;;;;;;10.24;100.00;98257.38;5096343;28;19924;-75
2023/01/07 05:48:00;;;;;;;;;;;;;;;10.32;100.00;98251.59;5106165;28;19980;-75
2023/01/07 05:50:26;;;;;;;;;;;;;;;10.37;100.00;98248.94;5106156;28;20002;-75
2023/01/07 05:52:54;;;;;;;;;;;;;;;10.33;100.00;98250.53;5114988;28;19999;-75
2023/01/07 05:55:20;;;;;;;;;;;;;;;10.18;100.00;98258.41;5105096;28;19925;-75
2023/01/07 05:57:47;;;;;;;;;;;;;;;10.10;100.00;98251.59;5114463;28;20600;-76
2023/01/07 06:00:14;;;;;;;;;;;;;;;10.12;100.00;98251.38;5124776;28;19934;-75
2023/01/07 06:02:40;;;;;;;;;;;;;;;10.05;100.00;98253.41;5126171;28;19939;-75
2023/01/07 06:05:07;;;;;;;;;;;;;;;10.18;100.00;98247.72;5110760;28;19967;-74
2023/01/07 06:07:34;;;;;;;;;;;;;;;9.95;100.00;98242.63;5109916;28;19924;-75
2023/01/07 06:10:02;;;;;;;;;;;;;;;9.94;100.00;98246.34;5099942;28;19924;-75
2023/01/07 06:12:28;;;;;;;;;;;;;;;9.87;100.00;98245.75;5109389;28;19946;-75
2023/01/07 06:14:54;;;;;;;;;;;;;;;9.67;100.00;98244.47;5126144;28;20038;-75
2023/01/07 06:17:21;;;;;;;;;;;;;;;9.55;100.00;98241.13;5121033;28;19923;-75
2023/01/07 06:19:47;;;;;;;;;;;;;;;9.72;100.00;98238.38;5103023;28;20026;-72
2023/01/07 06:22:14;;;;;;;;;;;;;;;9.89;100.00;98243.63;5109179;28;19942;-74
2023/01/07 06:24:40;;;;;;;;;;;;;;;10.10;100.00;98245.47;5119802;27;20360;-74
2023/01/07 06:27:09;;;;;;;;;;;;;;;10.18;100.00;98247.72;5118253;28;19955;-74
2023/01/07 06:29:35;;;;;;;;;;;;;;;10.22;100.00;98243.47;5117539;28;19924;-74
2023/01/07 06:32:01;;;;;;;;;;;;;;;10.18;100.00;98234.38;5117501;28;19920;-74
2023/01/07 06:34:28;;;;;;;;;;;;;;;10.05;100.00;98237.41;5117409;28;19924;-74
2023/01/07 06:36:54;;;;;;;;;;;;;;;10.05;100.00;98237.41;5100158;28;19987;-74
2023/01/07 06:39:20;;;;;;;;;;;;;;;10.13;100.00;98237.78;5102939;28;19924;-74
2023/01/07 06:41:47;;;;;;;;;;;;;;;10.13;100.00;98239.63;5121204;28;19977;-75
2023/01/07 06:44:15;;;;;;;;;;;;;;;10.25;100.00;98234.97;5109010;28;19924;-75
2023/01/07 06:46:41;;;;;;;;;;;;;;;10.10;100.00;98232.94;5109552;28;19975;-75
2023/01/07 06:49:07;;;;;;;;;;;;;;;9.99;100.00;98233.06;5099421;28;19988;-75
2023/01/07 06:51:34;;;;;;;;;;;;;;;10.11;100.00;98233.72;5093969;28;20065;-74
2023/01/07 06:54:00;;;;;;;;;;;;;;;10.11;100.00;98225.72;5113910;27;19923;-74
2023/01/07 06:56:27;;;;;;;;;;;;;;;9.82;100.00;98227.00;5120647;28;19934;-74
2023/01/07 06:58:53;;;;;;;;;;;;;;;9.65;100.00;98230.56;5119864;28;19923;-74
2023/01/07 07:01:21;;;;;;;;;;;;;;;9.61;100.00;98224.13;5117221;28;19995;-74
2023/01/07 07:03:47;;;;;;;;;;;;;;;9.36;100.00;98221.13;5117058;28;19954;-74
2023/01/07 07:06:14;;;;;;;;;;;;;;;9.35;100.00;98216.03;5124147;28;19924;-74
2023/01/07 07:08:40;;;;;;;;;;;;;;;9.63;100.00;98224.66;5108163;28;19979;-74
2023/01/07 07:11:06;;;;;;;;;;;;;;;9.56;100.00;98224.03;5107342;28;19983;-75
2023/01/07 07:13:33;;;;;;;;;;;;;;;9.84;100.00;98224.91;5108566;28;19968;-75
2023/01/07 07:15:59;;;;;;;;;;;;;;;9.97;100.00;98224.50;5108703;28;20416;-75
2023/01/07 07:18:27;;;;;;;;;;;;;;;9.86;100.00;98230.78;5103998;28;19923;-75
2023/01/07 07:20:53;;;;;;;;;;;;;;;9.55;100.00;98222.44;5119624;28;19979;-75
2023/01/07 07:23:19;;;;;;;;;;;;;;;9.45;100.00;98232.16;5116714;28;19931;-75
2023/01/07 07:25:46;;;;;;;;;;;;;;;9.27;100.00;98216.47;5102195;28;19928;-74
2023/01/07 07:28:12;;;;;;;;;;;;;;;9.32;100.00;98225.34;5120102;28;19924;-75
2023/01/07 07:30:39;;;;;;;;;;;;;;;9.25;100.00;98214.09;5120322;28;19928;-75
2023/01/07 07:33:05;;;;;;;;;;;;;;;9.31;100.00;98217.59;5118775;28;19947;-75
2023/01/07 07:35:33;;;;;;;;;;;;;;;9.62;100.00;98215.06;5098853;28;19923;-75
2023/01/07 07:37:59;;;;;;;;;;;;;;;9.68;100.00;98219.41;5118325;28;19924;-75
2023/01/07 07:40:26;;;;;;;;;;;;;;;9.63;100.00;98211.34;5120314;28;19987;-75
2023/01/07 07:42:52;;;;;;;;;;;;;;;9.55;100.00;98211.78;5119756;28;19955;-75
2023/01/07 07:45:19;;;;;;;;;;;;;;;9.56;100.00;98212.59;5116825;28;20309;-75
2023/01/07 07:47:46;;;;;;;;;;;;;;;9.61;100.00;98208.13;5116084;28;19951;-75
2023/01/07 07:50:12;;;;;;;;;;;;;;;9.63;100.00;98206.00;5120046;28;19942;-75
2023/01/07 07:52:40;;;;;;;;;;;;;;;9.74;100.00;98201.59;5120189;28;19924;-75
2023/01/07 07:55:07;;;;;;;;;;;;;;;9.94;100.00;98201.00;5102944;28;19930;-75
2023/01/07 07:57:33;;;;;;;;;;;;;;;9.98;100.00;98204.78;5116128;28;19924;-75
2023/01/07 07:59:59;;;;;;;;;;;;;;;10.00;100.00;98197.31;5117625;28;19924;-75
2023/01/07 08:02:26;;;;;;;;;;;;;;;10.13;100.00;98195.09;5101041;28;19924;-75
2023/01/07 08:04:52;;;;;;;;;;;;;;;10.17;100.00;98190.88;5100430;28;19920;-75
2023/01/07 08:07:18;;;;;;;;;;;;;;;10.02;100.00;98189.88;5115716;28;19931;-74
2023/01/07 08:09:46;;;;;;;;;;;;;;;9.82;100.00;98179.00;5115964;28;19959;-75
2023/01/07 08:12:12;;;;;;;;;;;;;;;9.72;100.00;98177.03;5119035;28;19924;-74
2023/01/07 08:14:39;;;;;;;;;;;;;;;9.68;100.00;98178.59;5119183;28;19991;-75
2023/01/07 08:17:05;;;;;;;;;;;;;;;9.67;100.00;98176.97;5116589;28;19963;-75
2023/01/07 08:19:31;;;;;;;;;;;;;;;9.69;100.00;98181.00;5115979;28;19978;-74
2023/01/07 08:21:58;;;;;;;;;;;;;;;9.53;100.00;98179.22;5117316;28;19928;-74
2023/01/07 08:24:24;;;;;;;;;;;;;;;9.53;100.00;98167.78;5104382;28;19923;-75
2023/01/07 08:26:54;;;;;;;;;;;;;;;9.54;100.00;98167.50;5100574;28;20372;-74
2023/01/07 08:29:20;;;;;;;;;;;;;;;9.57;100.00;98174.19;5116126;28;19974;-75
2023/01/07 08:31:47;;;;;;;;;;;;;;;9.47;100.00;98169.56;5115902;28;19951;-75
2023/01/07 08:34:13;;;;;;;;;;;;;;;9.39;100.00;98169.19;5115704;28;19924;-75
2023/01/07 08:36:39;;;;;;;;;;;;;;;9.60;100.00;98157.69;5115356;28;19936;-75
2023/01/07 08:39:06;;;;;;;;;;;;;;;9.65;100.00;98168.44;5124087;28;19983;-75
2023/01/07 08:41:32;;;;;;;;;;;;;;;9.89;100.00;98164.41;5097405;28;19931;-75
2023/01/07 08:44:00;;;;;;;;;;;;;;;9.82;100.00;98165.66;5117193;28;20233;-75
2023/01/07 08:46:26;;;;;;;;;;;;;;;9.68;100.00;98158.06;5118990;28;19942;-75
2023/01/07 08:48:53;;;;;;;;;;;;;;;9.56;100.00;98159.28;5100288;28;19924;-75
2023/01/07 08:51:19;;;;;;;;;;;;;;;9.56;100.00;98154.72;5097334;28;20146;-75
2023/01/07 08:53:46;;;;;;;;;;;;;;;9.47;100.00;98147.44;5117917;27;19935;-74
2023/01/07 08:56:12;;;;;;;;;;;;;;;9.40;100.00;98155.63;5118941;28;20006;-75
2023/01/07 08:58:39;;;;;;;;;;;;;;;9.32;100.00;98148.06;5118805;28;19962;-74
2023/01/07 09:01:07;;;;;;;;;;;;;;;9.49;100.00;98150.66;5098037;28;19930;-74
2023/01/07 09:03:34;;;;;;;;;;;;;;;9.41;100.00;98146.56;5114529;28;19967;-75
2023/01/07 09:06:00;;;;;;;;;;;;;;;9.52;100.00;98147.50;5117168;28;19924;-75
2023/01/07 09:08:27;;;;;;;;;;;;;;;9.43;100.00;98149.81;5118837;28;19923;-75
2023/01/07 09:10:53;;;;;;;;;;;;;;;9.39;100.00;98143.34;5118147;28;19924;-75
2023/01/07 09:13:20;;;;;;;;;;;;;;;9.41;100.00;98151.09;5115333;28;19947;-75
2023/01/07 09:15:46;;;;;;;;;;;;;;;9.43;100.00;98143.66;5114945;28;19928;-76
2023/01/07 09:18:14;;;;;;;;;;;;;;;9.45;100.00;98145.00;5117761;28;19924;-74
2023/01/07 09:20:40;;;;;;;;;;;;;;;9.65;100.00;98137.25;5099931;28;19970;-75
2023/01/07 09:23:07;;;;;;;;;;;;;;;9.65;100.00;98142.59;5115854;28;20459;-75
2023/01/07 09:25:33;;;;;;;;;;;;;;;9.63;100.00;98134.00;5118099;28;19928;-75
2023/01/07 09:28:00;;;;;;;;;;;;;;;9.51;100.00;98129.88;5115940;28;19924;-74
2023/01/07 09:30:26;;;;;;;;;;;;;;;9.83;100.00;98143.28;5117901;28;19924;-74
2023/01/07 09:32:52;;;;;;;;;;;;;;;9.98;100.00;98135.41;5117112;28;19924;-75
2023/01/07 09:35:20;;;;;;;;;;;;;;;9.92;100.00;98131.09;5117815;28;19996;-76
2023/01/07 09:37:47;;;;;;;;;;;;;;;9.76;100.00;98128.28;5100321;28;20522;-75
2023/01/07 09:40:19;;;;;;;;;;;;;;;9.86;100.00;98122.25;5121593;28;19924;-75
2023/01/07 09:42:50;;;;;;;;;;;;;;;9.81;100.00;98116.84;5122105;28;19924;-75
2023/01/07 09:45:19;;;;;;;;;;;;;;;10.09;100.00;98121.91;5118104;28;19924;-74
2023/01/07 09:47:47;;;;;;;;;;;;;;;10.08;100.00;98119.50;5100204;28;19952;-74
2023/01/07 09:50:17;;;;;;;;;;;;;;;10.16;100.00;98121.72;5109563;28;19949;-74
2023/01/07 09:52:47;;;;;;;;;;;;;;;10.31;100.00;98111.16;5109609;28;19932;-75
2023/01/07 09:55:16;;;;;;;;;;;;;;;10.31;100.00;98111.16;5122035;27;19931;-75
2023/01/07 09:57:43;;;;;;;;;;;;;;;10.29;100.00;98110.63;5099731;28;20523;-75
2023/01/07 10:00:14;;;;;;;;;;;;;;;10.30;100.00;98107.69;5120895;28;20306;-75
2023/01/07 10:02:44;;;;;;;;;;;;;;;9.70;100.00;98101.81;5102980;28;19935;-74
2023/01/07 10:05:19;;;;;;;;;;;;;;;9.92;100.00;98094.53;5118319;28;19983;-74
2023/01/07 10:07:51;;;;;;;;;;;;;;;9.88;100.00;98092.63;5118112;28;19967;-75
2023/01/07 10:10:22;;;;;;;;;;;;;;;9.70;100.00;98089.28;5118157;28;20001;-75
2023/01/07 10:12:53;;;;;;;;;;;;;;;9.72;100.00;98083.69;5099190;28;19939;-77
2023/01/07 10:15:31;;;;;;;;;;;;;;;9.69;100.00;98082.34;5117983;28;20035;-76
2023/01/07 10:18:07;;;;;;;;;;;;;;;9.74;100.00;98077.06;5118716;28;19924;-75
2023/01/07 10:20:39;;;;;;;;;;;;;;;9.76;100.00;98080.28;5120915;28;19986;-75
2023/01/07 10:23:10;;;;;;;;;;;;;;;9.76;100.00;98074.13;5118362;28;19950;-75
2023/01/07 10:25:39;;;;;;;;;;;;;;;9.76;100.00;98069.59;5121254;27;19924;-75
2023/01/07 10:28:10;;;;;;;;;;;;;;;9.74;100.00;98065.59;5119780;28;19932;-75
2023/01/07 10:30:40;;;;;;;;;;;;;;;9.92;100.00;98057.19;5102486;28;19924;-74
2023/01/07 10:33:16;;;;;;;;;;;;;;;9.99;100.00;98060.47;5118383;28;19926;-74
2023/01/07 10:35:43;;;;;;;;;;;;;;;9.91;100.00;98050.25;5098923;28;19959;-76
2023/01/07 10:38:14;;;;;;;;;;;;;;;9.88;100.00;98040.09;5120755;28;19942;-75
2023/01/07 10:40:43;;;;;;;;;;;;;;;9.89;100.00;98049.72;5121322;28;20003;-75
2023/01/07 10:43:21;;;;;;;;;;;;;;;10.09;100.00;98041.03;5099386;28;19936;-75
2023/01/07 10:45:57;;;;;;;;;;;;;;;9.99;100.00;98040.97;5115468;28;20027;-75
2023/01/07 10:48:38;;;;;;;;;;;;;;;9.99;100.00;98041.78;5100302;28;19996;-75
2023/01/07 10:51:10;;;;;;;;;;;;;;;10.03;100.00;98036.72;5118737;28;20240;-75
2023/01/07 10:53:46;;;;;;;;;;;;;;;10.07;100.00;98027.16;5120194;28;19920;-74
2023/01/07 10:56:19;;;;;;;;;;;;;;;10.01;100.00;98028.19;5101926;28;20506;-74
2023/01/07 10:58:47;;;;;;;;;;;;;;;10.06;100.00;98026.34;5120984;28;19935;-75
2023/01/07 11:01:18;;;;;;;;;;;;;;;10.17;100.00;98027.25;5097927;28;19924;-74
2023/01/07 11:03:48;;;;;;;;;;;;;;;10.21;100.00;98023.03;5098262;28;19963;-75
2023/01/07 11:06:15;;;;;;;;;;;;;;;10.18;100.00;98012.88;5123630;28;19924;-75
2023/01/07 11:08:42;;;;;;;;;;;;;;;10.22;100.00;98008.59;5108715;28;19963;-75
2023/01/07 11:11:13;;;;;;;;;;;;;;;10.16;100.00;98001.63;5098547;28;20015;-74
2023/01/07 11:13:41;;;;;;;;;;;;;;;10.16;100.00;97997.09;5098019;28;19924;-74
2023/01/07 11:16:10;;;;;;;;;;;;;;;10.22;100.00;97998.72;5101009;28;19924;-75
2023/01/07 11:18:39;;;;;;;;;;;;;;;10.15;100.00;97997.38;5101649;28;19924;-76
2023/01/07 11:21:06;;;;;;;;;;;;;;;10.29;100.00;97990.50;5117637;28;19927;-75
2023/01/07 11:23:33;;;;;;;;;;;;;;;10.13;100.00;97984.28;5116721;28;20490;-75
2023/01/07 11:26:10;;;;;;;;;;;;;;;10.37;100.00;97982.00;5121784;27;19928;-75
2023/01/07 11:28:37;;;;;;;;;;;;;;;10.34;100.00;97966.50;5120638;28;19967;-75
2023/01/07 11:31:03;;;;;;;;;;;;;;;10.19;100.00;97969.09;5099333;28;19974;-75
2023/01/07 11:33:37;;;;;;;;;;;;;;;10.21;100.00;97965.09;5116268;28;19928;-75
2023/01/07 11:36:04;;;;;;;;;;;;;;;10.27;100.00;97955.25;5099631;28;19932;-76
2023/01/07 11:38:32;;;;;;;;;;;;;;;10.29;100.00;97942.44;5119466;28;19931;-74
2023/01/07 11:41:00;;;;;;;;;;;;;;;10.18;100.00;97936.25;5117844;28;20463;-74
2023/01/07 11:43:32;;;;;;;;;;;;;;;10.28;100.00;97935.50;5115879;28;19988;-75
2023/01/07 11:45:59;;;;;;;;;;;;;;;10.26;100.00;97937.63;5117237;28;19924;-75
2023/01/07 11:48:27;;;;;;;;;;;;;;;10.35;100.00;97932.59;5119938;28;19924;-75
2023/01/07 11:50:58;;;;;;;;;;;;;;;10.41;100.00;97929.69;5118952;28;19979;-76
2023/01/07 11:53:31;;;;;;;;;;;;;;;10.44;100.00;97925.69;5115997;28;19950;-76
2023/01/07 11:55:59;;;;;;;;;;;;;;;10.45;100.00;97913.94;5102423;28;19927;-75
2023/01/07 11:58:26;;;;;;;;;;;;;;;10.47;100.00;97912.63;5118915;28;19974;-75
2023/01/07 12:01:03;;;;;;;;;;;;;;;10.54;100.00;97913.19;5118474;28;19931;-75
2023/01/07 12:03:30;;;;;;;;;;;;;;;10.55;100.00;97900.66;5097006;28;19995;-76
2023/01/07 12:05:57;;;;;;;;;;;;;;;10.59;100.00;97889.16;5116365;28;19920;-75
2023/01/07 12:08:25;;;;;;;;;;;;;;;10.55;100.00;97889.97;5118802;28;19923;-74
2023/01/07 12:10:56;;;;;;;;;;;;;;;10.56;100.00;97886.22;5118324;28;19924;-74
2023/01/07 12:13:24;;;;;;;;;;;;;;;10.55;100.00;97879.28;5097409;28;20032;-74
2023/01/07 12:15:52;;;;;;;;;;;;;;;10.55;100.00;97874.72;5116426;28;19995;-75
2023/01/07 12:18:29;;;;;;;;;;;;;;;10.58;100.00;97878.75;5118937;28;19946;-74
2023/01/07 12:21:10;;;;;;;;;;;;;;;10.61;100.00;97878.22;5099545;28;19967;-74
2023/01/07 12:23:43;;;;;;;;;;;;;;;10.68;100.00;97879.56;5112799;28;19920;-74
2023/01/07 12:26:15;;;;;;;;;;;;;;;10.77;100.00;97874.50;5119880;28;19987;-74
2023/01/07 12:28:49;;;;;;;;;;;;;;;10.73;100.00;97879.59;5118787;28;19924;-74
2023/01/07 12:31:26;;;;;;;;;;;;;;;10.68;100.00;97860.06;5114055;28;19924;-74
2023/01/07 12:34:02;;;;;;;;;;;;;;;10.71;100.00;97867.53;5115445;28;19927;-75
2023/01/07 12:36:35;;;;;;;;;;;;;;;10.76;100.00;97868.38;5117759;28;20378;-74
2023/01/07 12:39:04;;;;;;;;;;;;;;;10.80;100.00;97860.63;5098072;28;19983;-75
2023/01/07 12:41:32;;;;;;;;;;;;;;;10.74;100.00;97851.78;5096223;28;19924;-75
2023/01/07 12:44:01;;;;;;;;;;;;;;;10.78;100.00;97852.06;5097552;28;19935;-75
2023/01/07 12:46:30;;;;;;;;;;;;;;;10.79;100.00;97849.16;5099943;28;19920;-78
2023/01/07 12:49:03;;;;;;;;;;;;;;;10.81;100.00;97841.66;5117141;28;19958;-76